sensor_id;sensor_type;location;lat;lon;timestamp;temperature;humidity
17988;DHT22;9119;50.932;5.342;2022-07-29T00:02:11;19.20;99.90
17988;DHT22;9119;50.932;5.342;2022-07-29T00:04:37;19.20;99.90
17988;DHT22;9119;50.932;5.342;2022-07-29T00:07:04;19.20;99.90
17988;DHT22;9119;50.932;5.342;2022-07-29T00:09:30;19.00;99.90
17988;DHT22;9119;50.932;5.342;2022-07-29T00:11:59;18.90;99.90
17988;DHT22;9119;50.932;5.342;2022-07-29T00:14:26;18.80;99.90
17988;DHT22;9119;50.932;5.342;2022-07-29T00:16:51;18.80;99.90
17988;DHT22;9119;50.932;5.342;2022-07-29T00:19:17;19.00;99.90
17988;DHT22;9119;50.932;5.342;2022-07-29T00:21:43;19.00;99.90
17988;DHT22;9119;50.932;5.342;2022-07-29T00:24:09;19.00;99.90
17988;DHT22;9119;50.932;5.342;2022-07-29T00:26:34;18.90;99.90
17988;DHT22;9119;50.932;5.342;2022-07-29T00:29:01;18.90;99.90
17988;DHT22;9119;50.932;5.342;2022-07-29T00:31:27;18.80;99.90
17988;DHT22;9119;50.932;5.342;2022-07-29T00:33:53;18.70;99.90
17988;DHT22;9119;50.932;5.342;2022-07-29T00:36:19;18.70;99.90
17988;DHT22;9119;50.932;5.342;2022-07-29T00:38:49;18.80;99.90
17988;DHT22;9119;50.932;5.342;2022-07-29T00:41:15;18.60;99.90
17988;DHT22;9119;50.932;5.342;2022-07-29T00:43:42;18.60;99.90
17988;DHT22;9119;50.932;5.342;2022-07-29T00:46:08;18.50;99.90
17988;DHT22;9119;50.932;5.342;2022-07-29T00:48:34;18.60;99.90
17988;DHT22;9119;50.932;5.342;2022-07-29T00:51:02;18.70;99.90
17988;DHT22;9119;50.932;5.342;2022-07-29T00:53:29;18.70;99.90
17988;DHT22;9119;50.932;5.342;2022-07-29T00:55:55;18.50;99.90
17988;DHT22;9119;50.932;5.342;2022-07-29T00:58:22;18.50;99.90
17988;DHT22;9119;50.932;5.342;2022-07-29T01:00:47;18.50;99.90
17988;DHT22;9119;50.932;5.342;2022-07-29T01:03:13;18.40;99.90
17988;DHT22;9119;50.932;5.342;2022-07-29T01:05:40;18.60;99.90
17988;DHT22;9119;50.932;5.342;2022-07-29T01:08:06;18.50;99.90
17988;DHT22;9119;50.932;5.342;2022-07-29T01:10:33;18.60;99.90
17988;DHT22;9119;50.932;5.342;2022-07-29T01:13:01;18.40;99.90
17988;DHT22;9119;50.932;5.342;2022-07-29T01:15:27;18.40;99.90
17988;DHT22;9119;50.932;5.342;2022-07-29T01:18:11;18.50;99.90
17988;DHT22;9119;50.932;5.342;2022-07-29T01:20:59;18.50;99.90
17988;DHT22;9119;50.932;5.342;2022-07-29T01:26:32;18.60;99.90
17988;DHT22;9119;50.932;5.342;2022-07-29T01:31:56;18.50;99.90
17988;DHT22;9119;50.932;5.342;2022-07-29T01:34:41;18.40;99.90
17988;DHT22;9119;50.932;5.342;2022-07-29T01:39:53;18.20;99.90
17988;DHT22;9119;50.932;5.342;2022-07-29T01:42:34;18.10;99.90
17988;DHT22;9119;50.932;5.342;2022-07-29T01:47:34;18.00;99.90
17988;DHT22;9119;50.932;5.342;2022-07-29T01:50:06;17.90;99.90
17988;DHT22;9119;50.932;5.342;2022-07-29T01:52:39;17.70;99.90
17988;DHT22;9119;50.932;5.342;2022-07-29T01:55:13;17.70;99.90
17988;DHT22;9119;50.932;5.342;2022-07-29T01:57:42;17.70;99.90
17988;DHT22;9119;50.932;5.342;2022-07-29T02:00:09;17.70;99.90
17988;DHT22;9119;50.932;5.342;2022-07-29T02:02:35;17.70;99.90
17988;DHT22;9119;50.932;5.342;2022-07-29T02:05:03;17.60;99.90
17988;DHT22;9119;50.932;5.342;2022-07-29T02:07:32;17.50;99.90
17988;DHT22;9119;50.932;5.342;2022-07-29T02:09:59;17.40;99.90
17988;DHT22;9119;50.932;5.342;2022-07-29T02:12:26;17.40;99.90
17988;DHT22;9119;50.932;5.342;2022-07-29T02:14:54;17.60;99.90
17988;DHT22;9119;50.932;5.342;2022-07-29T02:17:26;17.40;99.90
17988;DHT22;9119;50.932;5.342;2022-07-29T02:19:56;17.30;99.90
17988;DHT22;9119;50.932;5.342;2022-07-29T02:22:26;17.40;99.90
17988;DHT22;9119;50.932;5.342;2022-07-29T02:24:53;17.10;99.90
17988;DHT22;9119;50.932;5.342;2022-07-29T02:27:19;17.20;99.90
17988;DHT22;9119;50.932;5.342;2022-07-29T02:29:46;17.30;99.90
17988;DHT22;9119;50.932;5.342;2022-07-29T02:32:13;17.50;99.90
17988;DHT22;9119;50.932;5.342;2022-07-29T02:34:40;17.30;99.90
17988;DHT22;9119;50.932;5.342;2022-07-29T02:37:09;17.30;99.90
17988;DHT22;9119;50.932;5.342;2022-07-29T02:39:36;17.20;99.90
17988;DHT22;9119;50.932;5.342;2022-07-29T02:42:06;17.40;99.90
17988;DHT22;9119;50.932;5.342;2022-07-29T02:44:33;17.30;99.90
17988;DHT22;9119;50.932;5.342;2022-07-29T02:52:28;17.30;99.90
17988;DHT22;9119;50.932;5.342;2022-07-29T02:55:01;17.50;99.90
17988;DHT22;9119;50.932;5.342;2022-07-29T02:57:37;17.50;99.90
17988;DHT22;9119;50.932;5.342;2022-07-29T03:00:07;17.60;99.90
17988;DHT22;9119;50.932;5.342;2022-07-29T03:02:36;17.60;99.90
17988;DHT22;9119;50.932;5.342;2022-07-29T03:05:04;17.70;99.90
17988;DHT22;9119;50.932;5.342;2022-07-29T03:07:31;17.80;99.90
17988;DHT22;9119;50.932;5.342;2022-07-29T03:09:59;17.90;99.90
17988;DHT22;9119;50.932;5.342;2022-07-29T03:12:25;17.70;99.90
17988;DHT22;9119;50.932;5.342;2022-07-29T03:14:52;17.70;99.90
17988;DHT22;9119;50.932;5.342;2022-07-29T03:17:18;17.60;99.90
17988;DHT22;9119;50.932;5.342;2022-07-29T03:19:45;17.60;99.90
17988;DHT22;9119;50.932;5.342;2022-07-29T03:22:11;17.40;99.90
17988;DHT22;9119;50.932;5.342;2022-07-29T03:24:37;17.40;99.90
17988;DHT22;9119;50.932;5.342;2022-07-29T03:27:03;17.40;99.90
17988;DHT22;9119;50.932;5.342;2022-07-29T03:29:29;17.50;99.90
17988;DHT22;9119;50.932;5.342;2022-07-29T03:31:55;17.60;99.90
17988;DHT22;9119;50.932;5.342;2022-07-29T03:34:21;17.50;99.90
17988;DHT22;9119;50.932;5.342;2022-07-29T03:36:47;17.70;99.90
17988;DHT22;9119;50.932;5.342;2022-07-29T03:39:17;17.80;99.90
17988;DHT22;9119;50.932;5.342;2022-07-29T03:41:45;17.80;99.90
17988;DHT22;9119;50.932;5.342;2022-07-29T03:44:13;17.80;99.90
17988;DHT22;9119;50.932;5.342;2022-07-29T03:46:41;17.80;99.90
17988;DHT22;9119;50.932;5.342;2022-07-29T03:49:09;18.00;99.90
17988;DHT22;9119;50.932;5.342;2022-07-29T03:51:36;17.80;99.90
17988;DHT22;9119;50.932;5.342;2022-07-29T03:54:03;17.80;99.90
17988;DHT22;9119;50.932;5.342;2022-07-29T03:56:29;17.80;99.90
17988;DHT22;9119;50.932;5.342;2022-07-29T03:58:57;17.90;99.90
17988;DHT22;9119;50.932;5.342;2022-07-29T04:01:24;17.80;99.90
17988;DHT22;9119;50.932;5.342;2022-07-29T04:03:51;17.90;99.90
17988;DHT22;9119;50.932;5.342;2022-07-29T04:06:16;18.10;99.90
17988;DHT22;9119;50.932;5.342;2022-07-29T04:08:42;17.80;99.90
17988;DHT22;9119;50.932;5.342;2022-07-29T04:11:08;17.80;99.90
17988;DHT22;9119;50.932;5.342;2022-07-29T04:13:33;17.80;99.90
17988;DHT22;9119;50.932;5.342;2022-07-29T04:15:59;17.80;99.90
17988;DHT22;9119;50.932;5.342;2022-07-29T04:18:25;17.80;99.90
17988;DHT22;9119;50.932;5.342;2022-07-29T04:20:51;17.70;99.90
17988;DHT22;9119;50.932;5.342;2022-07-29T04:23:16;17.70;99.90
17988;DHT22;9119;50.932;5.342;2022-07-29T04:25:43;17.60;99.90
17988;DHT22;9119;50.932;5.342;2022-07-29T04:28:09;17.80;99.90
17988;DHT22;9119;50.932;5.342;2022-07-29T04:30:36;17.80;99.90
17988;DHT22;9119;50.932;5.342;2022-07-29T04:33:04;17.50;99.90
17988;DHT22;9119;50.932;5.342;2022-07-29T04:35:33;17.40;99.90
17988;DHT22;9119;50.932;5.342;2022-07-29T04:37:58;17.60;99.90
17988;DHT22;9119;50.932;5.342;2022-07-29T04:40:24;17.30;99.90
17988;DHT22;9119;50.932;5.342;2022-07-29T04:42:49;17.40;99.90
17988;DHT22;9119;50.932;5.342;2022-07-29T04:45:15;17.30;99.90
17988;DHT22;9119;50.932;5.342;2022-07-29T04:47:41;17.20;99.90
17988;DHT22;9119;50.932;5.342;2022-07-29T04:50:08;17.20;99.90
17988;DHT22;9119;50.932;5.342;2022-07-29T04:52:34;17.30;99.90
17988;DHT22;9119;50.932;5.342;2022-07-29T04:55:00;17.40;99.90
17988;DHT22;9119;50.932;5.342;2022-07-29T04:57:26;17.50;99.90
17988;DHT22;9119;50.932;5.342;2022-07-29T04:59:52;17.50;99.90
17988;DHT22;9119;50.932;5.342;2022-07-29T05:02:18;17.50;99.90
17988;DHT22;9119;50.932;5.342;2022-07-29T05:04:43;17.20;99.90
17988;DHT22;9119;50.932;5.342;2022-07-29T05:07:09;17.20;99.90
17988;DHT22;9119;50.932;5.342;2022-07-29T05:09:35;17.30;99.90
17988;DHT22;9119;50.932;5.342;2022-07-29T05:12:00;17.50;99.90
17988;DHT22;9119;50.932;5.342;2022-07-29T05:14:26;17.40;99.90
17988;DHT22;9119;50.932;5.342;2022-07-29T05:16:52;17.20;99.90
17988;DHT22;9119;50.932;5.342;2022-07-29T05:19:18;16.90;99.90
17988;DHT22;9119;50.932;5.342;2022-07-29T05:21:47;17.00;99.90
17988;DHT22;9119;50.932;5.342;2022-07-29T05:24:13;16.90;99.90
17988;DHT22;9119;50.932;5.342;2022-07-29T05:26:39;17.10;99.90
17988;DHT22;9119;50.932;5.342;2022-07-29T05:29:04;17.20;99.90
17988;DHT22;9119;50.932;5.342;2022-07-29T05:31:30;17.20;99.90
17988;DHT22;9119;50.932;5.342;2022-07-29T05:33:56;17.30;99.90
17988;DHT22;9119;50.932;5.342;2022-07-29T05:36:21;17.30;99.90
17988;DHT22;9119;50.932;5.342;2022-07-29T05:38:47;17.20;99.90
17988;DHT22;9119;50.932;5.342;2022-07-29T05:41:13;17.40;99.90
17988;DHT22;9119;50.932;5.342;2022-07-29T05:43:38;17.10;99.90
17988;DHT22;9119;50.932;5.342;2022-07-29T05:46:04;16.80;99.90
17988;DHT22;9119;50.932;5.342;2022-07-29T05:48:29;16.90;99.90
17988;DHT22;9119;50.932;5.342;2022-07-29T05:50:55;16.90;99.90
17988;DHT22;9119;50.932;5.342;2022-07-29T05:53:21;16.80;99.90
17988;DHT22;9119;50.932;5.342;2022-07-29T05:55:48;16.80;99.90
17988;DHT22;9119;50.932;5.342;2022-07-29T05:58:13;16.80;99.90
17988;DHT22;9119;50.932;5.342;2022-07-29T06:00:39;16.80;99.90
17988;DHT22;9119;50.932;5.342;2022-07-29T06:03:05;16.80;99.90
17988;DHT22;9119;50.932;5.342;2022-07-29T06:05:30;17.10;99.90
17988;DHT22;9119;50.932;5.342;2022-07-29T06:07:56;17.00;99.90
17988;DHT22;9119;50.932;5.342;2022-07-29T06:10:22;17.20;99.90
17988;DHT22;9119;50.932;5.342;2022-07-29T06:12:47;17.40;99.90
17988;DHT22;9119;50.932;5.342;2022-07-29T06:15:15;17.30;99.90
17988;DHT22;9119;50.932;5.342;2022-07-29T06:17:41;17.30;99.90
17988;DHT22;9119;50.932;5.342;2022-07-29T06:20:07;17.30;99.90
17988;DHT22;9119;50.932;5.342;2022-07-29T06:22:32;17.20;99.90
17988;DHT22;9119;50.932;5.342;2022-07-29T06:24:58;17.20;99.90
17988;DHT22;9119;50.932;5.342;2022-07-29T06:27:24;17.30;99.90
17988;DHT22;9119;50.932;5.342;2022-07-29T06:29:50;17.20;99.90
17988;DHT22;9119;50.932;5.342;2022-07-29T06:32:15;17.30;99.90
17988;DHT22;9119;50.932;5.342;2022-07-29T06:34:41;17.40;99.90
17988;DHT22;9119;50.932;5.342;2022-07-29T06:37:07;17.40;99.90
17988;DHT22;9119;50.932;5.342;2022-07-29T06:39:35;17.40;99.90
17988;DHT22;9119;50.932;5.342;2022-07-29T06:42:01;17.60;99.90
17988;DHT22;9119;50.932;5.342;2022-07-29T06:44:27;17.70;99.90
17988;DHT22;9119;50.932;5.342;2022-07-29T06:46:53;17.80;99.90
17988;DHT22;9119;50.932;5.342;2022-07-29T06:49:20;18.00;99.90
17988;DHT22;9119;50.932;5.342;2022-07-29T06:51:45;18.10;99.90
17988;DHT22;9119;50.932;5.342;2022-07-29T06:54:11;17.90;99.90
17988;DHT22;9119;50.932;5.342;2022-07-29T06:56:37;17.80;99.90
17988;DHT22;9119;50.932;5.342;2022-07-29T06:59:04;18.10;99.90
17988;DHT22;9119;50.932;5.342;2022-07-29T07:01:30;18.30;99.90
17988;DHT22;9119;50.932;5.342;2022-07-29T07:03:56;18.20;99.90
17988;DHT22;9119;50.932;5.342;2022-07-29T07:06:21;17.90;99.90
17988;DHT22;9119;50.932;5.342;2022-07-29T07:08:47;18.00;99.90
17988;DHT22;9119;50.932;5.342;2022-07-29T07:11:13;18.10;99.90
17988;DHT22;9119;50.932;5.342;2022-07-29T07:13:38;18.30;99.90
17988;DHT22;9119;50.932;5.342;2022-07-29T07:16:04;18.10;99.90
17988;DHT22;9119;50.932;5.342;2022-07-29T07:18:30;18.00;99.90
17988;DHT22;9119;50.932;5.342;2022-07-29T07:20:57;17.90;99.90
17988;DHT22;9119;50.932;5.342;2022-07-29T07:23:23;17.90;99.90
17988;DHT22;9119;50.932;5.342;2022-07-29T07:25:50;18.30;99.90
17988;DHT22;9119;50.932;5.342;2022-07-29T07:28:16;18.10;99.90
17988;DHT22;9119;50.932;5.342;2022-07-29T07:30:45;18.10;99.90
17988;DHT22;9119;50.932;5.342;2022-07-29T07:33:11;18.40;99.90
17988;DHT22;9119;50.932;5.342;2022-07-29T07:35:36;18.30;99.90
17988;DHT22;9119;50.932;5.342;2022-07-29T07:38:02;18.60;99.90
17988;DHT22;9119;50.932;5.342;2022-07-29T07:40:28;18.60;99.90
17988;DHT22;9119;50.932;5.342;2022-07-29T07:42:53;18.70;99.90
17988;DHT22;9119;50.932;5.342;2022-07-29T07:45:19;18.80;99.90
17988;DHT22;9119;50.932;5.342;2022-07-29T07:47:45;18.80;99.90
17988;DHT22;9119;50.932;5.342;2022-07-29T07:50:11;18.80;99.90
17988;DHT22;9119;50.932;5.342;2022-07-29T07:52:51;18.90;99.90
17988;DHT22;9119;50.932;5.342;2022-07-29T07:55:18;19.10;99.90
17988;DHT22;9119;50.932;5.342;2022-07-29T07:57:44;19.20;99.90
17988;DHT22;9119;50.932;5.342;2022-07-29T08:00:12;19.50;99.90
17988;DHT22;9119;50.932;5.342;2022-07-29T08:02:39;19.70;99.90
17988;DHT22;9119;50.932;5.342;2022-07-29T08:05:06;19.70;99.90
17988;DHT22;9119;50.932;5.342;2022-07-29T08:07:32;19.60;99.90
17988;DHT22;9119;50.932;5.342;2022-07-29T08:09:58;19.80;99.90
17988;DHT22;9119;50.932;5.342;2022-07-29T08:12:24;19.70;99.90
17988;DHT22;9119;50.932;5.342;2022-07-29T08:14:49;19.70;99.90
17988;DHT22;9119;50.932;5.342;2022-07-29T08:17:18;20.00;99.90
17988;DHT22;9119;50.932;5.342;2022-07-29T08:19:43;20.20;99.90
17988;DHT22;9119;50.932;5.342;2022-07-29T08:22:09;20.30;99.90
17988;DHT22;9119;50.932;5.342;2022-07-29T08:24:35;20.60;99.90
17988;DHT22;9119;50.932;5.342;2022-07-29T08:27:13;20.50;99.90
17988;DHT22;9119;50.932;5.342;2022-07-29T08:29:40;20.20;99.90
17988;DHT22;9119;50.932;5.342;2022-07-29T08:32:06;20.30;99.90
17988;DHT22;9119;50.932;5.342;2022-07-29T08:34:32;20.30;99.90
17988;DHT22;9119;50.932;5.342;2022-07-29T08:36:58;20.60;99.90
17988;DHT22;9119;50.932;5.342;2022-07-29T08:39:24;20.80;99.90
17988;DHT22;9119;50.932;5.342;2022-07-29T08:41:50;20.90;99.90
17988;DHT22;9119;50.932;5.342;2022-07-29T08:44:17;21.10;99.90
17988;DHT22;9119;50.932;5.342;2022-07-29T08:46:43;21.00;99.90
17988;DHT22;9119;50.932;5.342;2022-07-29T08:49:09;20.90;99.90
17988;DHT22;9119;50.932;5.342;2022-07-29T08:51:36;21.10;99.90
17988;DHT22;9119;50.932;5.342;2022-07-29T08:54:04;21.60;99.90
17988;DHT22;9119;50.932;5.342;2022-07-29T08:56:30;21.60;99.90
17988;DHT22;9119;50.932;5.342;2022-07-29T08:58:58;21.70;99.90
17988;DHT22;9119;50.932;5.342;2022-07-29T09:01:25;21.70;99.90
17988;DHT22;9119;50.932;5.342;2022-07-29T09:03:55;21.70;99.90
17988;DHT22;9119;50.932;5.342;2022-07-29T09:06:22;21.60;99.90
17988;DHT22;9119;50.932;5.342;2022-07-29T09:08:51;21.50;99.90
17988;DHT22;9119;50.932;5.342;2022-07-29T09:11:17;21.80;99.90
17988;DHT22;9119;50.932;5.342;2022-07-29T09:13:43;22.10;99.90
17988;DHT22;9119;50.932;5.342;2022-07-29T09:16:08;22.10;99.90
17988;DHT22;9119;50.932;5.342;2022-07-29T09:18:42;21.70;99.90
17988;DHT22;9119;50.932;5.342;2022-07-29T09:21:10;22.00;99.90
17988;DHT22;9119;50.932;5.342;2022-07-29T09:24:13;22.60;99.90
17988;DHT22;9119;50.932;5.342;2022-07-29T09:26:43;23.30;99.90
17988;DHT22;9119;50.932;5.342;2022-07-29T09:29:12;23.50;99.90
17988;DHT22;9119;50.932;5.342;2022-07-29T09:31:40;23.20;99.90
17988;DHT22;9119;50.932;5.342;2022-07-29T09:34:07;23.50;99.90
17988;DHT22;9119;50.932;5.342;2022-07-29T09:36:43;23.40;99.90
17988;DHT22;9119;50.932;5.342;2022-07-29T09:39:10;23.60;99.90
17988;DHT22;9119;50.932;5.342;2022-07-29T09:41:52;24.10;99.90
17988;DHT22;9119;50.932;5.342;2022-07-29T09:44:19;24.00;99.90
17988;DHT22;9119;50.932;5.342;2022-07-29T09:46:59;24.30;99.90
17988;DHT22;9119;50.932;5.342;2022-07-29T09:49:27;23.70;99.90
17988;DHT22;9119;50.932;5.342;2022-07-29T09:52:07;23.80;99.90
17988;DHT22;9119;50.932;5.342;2022-07-29T09:54:34;23.60;99.90
17988;DHT22;9119;50.932;5.342;2022-07-29T09:57:06;23.80;99.90
17988;DHT22;9119;50.932;5.342;2022-07-29T09:59:33;24.00;99.90
17988;DHT22;9119;50.932;5.342;2022-07-29T10:01:59;24.00;99.90
17988;DHT22;9119;50.932;5.342;2022-07-29T10:04:39;24.00;99.90
17988;DHT22;9119;50.932;5.342;2022-07-29T10:07:04;23.90;99.90
17988;DHT22;9119;50.932;5.342;2022-07-29T10:09:31;23.80;99.90
17988;DHT22;9119;50.932;5.342;2022-07-29T10:12:09;24.10;99.90
17988;DHT22;9119;50.932;5.342;2022-07-29T10:14:37;24.60;99.90
17988;DHT22;9119;50.932;5.342;2022-07-29T10:17:04;24.80;99.90
17988;DHT22;9119;50.932;5.342;2022-07-29T10:19:31;24.80;99.90
17988;DHT22;9119;50.932;5.342;2022-07-29T10:21:58;24.80;99.90
17988;DHT22;9119;50.932;5.342;2022-07-29T10:24:29;24.60;99.90
17988;DHT22;9119;50.932;5.342;2022-07-29T10:27:00;24.80;99.90
17988;DHT22;9119;50.932;5.342;2022-07-29T10:29:26;25.10;99.90
17988;DHT22;9119;50.932;5.342;2022-07-29T10:32:02;25.10;99.90
17988;DHT22;9119;50.932;5.342;2022-07-29T10:35:15;25.50;99.90
17988;DHT22;9119;50.932;5.342;2022-07-29T10:37:56;26.00;99.90
17988;DHT22;9119;50.932;5.342;2022-07-29T10:43:32;26.60;99.90
17988;DHT22;9119;50.932;5.342;2022-07-29T10:46:01;26.50;99.90
17988;DHT22;9119;50.932;5.342;2022-07-29T10:48:27;26.60;99.90
17988;DHT22;9119;50.932;5.342;2022-07-29T10:51:02;26.50;99.90
17988;DHT22;9119;50.932;5.342;2022-07-29T10:53:50;26.00;99.90
17988;DHT22;9119;50.932;5.342;2022-07-29T10:56:30;26.50;99.90
17988;DHT22;9119;50.932;5.342;2022-07-29T11:01:46;27.20;99.90
17988;DHT22;9119;50.932;5.342;2022-07-29T11:04:12;27.30;99.90
17988;DHT22;9119;50.932;5.342;2022-07-29T11:09:25;26.90;99.90
17988;DHT22;9119;50.932;5.342;2022-07-29T11:11:52;26.90;99.90
17988;DHT22;9119;50.932;5.342;2022-07-29T11:14:18;27.20;99.90
17988;DHT22;9119;50.932;5.342;2022-07-29T11:17:05;27.70;99.90
17988;DHT22;9119;50.932;5.342;2022-07-29T11:19:32;27.10;99.90
17988;DHT22;9119;50.932;5.342;2022-07-29T11:21:58;27.00;99.90
17988;DHT22;9119;50.932;5.342;2022-07-29T11:24:28;27.20;99.90
17988;DHT22;9119;50.932;5.342;2022-07-29T11:27:11;27.10;99.90
17988;DHT22;9119;50.932;5.342;2022-07-29T11:29:40;27.40;99.90
17988;DHT22;9119;50.932;5.342;2022-07-29T11:32:12;27.80;99.90
17988;DHT22;9119;50.932;5.342;2022-07-29T11:34:40;28.30;99.90
17988;DHT22;9119;50.932;5.342;2022-07-29T11:39:39;28.60;99.90
17988;DHT22;9119;50.932;5.342;2022-07-29T11:45:05;28.80;99.90
17988;DHT22;9119;50.932;5.342;2022-07-29T11:47:48;28.40;99.90
17988;DHT22;9119;50.932;5.342;2022-07-29T11:50:27;28.70;99.90
17988;DHT22;9119;50.932;5.342;2022-07-29T11:52:53;29.50;99.90
17988;DHT22;9119;50.932;5.342;2022-07-29T11:55:20;30.30;99.90
17988;DHT22;9119;50.932;5.342;2022-07-29T11:57:58;30.60;99.90
17988;DHT22;9119;50.932;5.342;2022-07-29T12:00:38;30.10;99.90
17988;DHT22;9119;50.932;5.342;2022-07-29T12:03:06;30.20;99.90
17988;DHT22;9119;50.932;5.342;2022-07-29T12:08:16;30.70;99.90
17988;DHT22;9119;50.932;5.342;2022-07-29T12:10:48;31.40;99.90
17988;DHT22;9119;50.932;5.342;2022-07-29T12:13:15;29.10;99.90
17988;DHT22;9119;50.932;5.342;2022-07-29T12:15:42;27.30;99.90
17988;DHT22;9119;50.932;5.342;2022-07-29T12:18:17;26.50;99.90
17988;DHT22;9119;50.932;5.342;2022-07-29T12:20:44;26.00;99.90
17988;DHT22;9119;50.932;5.342;2022-07-29T12:23:10;26.00;99.90
17988;DHT22;9119;50.932;5.342;2022-07-29T12:25:41;26.30;99.90
17988;DHT22;9119;50.932;5.342;2022-07-29T12:28:13;26.80;99.90
17988;DHT22;9119;50.932;5.342;2022-07-29T12:30:44;28.10;99.90
17988;DHT22;9119;50.932;5.342;2022-07-29T12:33:13;29.00;99.90
17988;DHT22;9119;50.932;5.342;2022-07-29T12:35:39;30.00;99.90
17988;DHT22;9119;50.932;5.342;2022-07-29T12:38:06;30.60;99.90
17988;DHT22;9119;50.932;5.342;2022-07-29T12:40:31;31.30;99.90
17988;DHT22;9119;50.932;5.342;2022-07-29T12:43:11;31.60;99.90
17988;DHT22;9119;50.932;5.342;2022-07-29T12:45:39;30.50;99.90
17988;DHT22;9119;50.932;5.342;2022-07-29T12:48:05;30.00;99.90
17988;DHT22;9119;50.932;5.342;2022-07-29T12:50:35;29.40;99.90
17988;DHT22;9119;50.932;5.342;2022-07-29T12:53:12;28.70;99.90
17988;DHT22;9119;50.932;5.342;2022-07-29T12:55:43;28.10;99.90
17988;DHT22;9119;50.932;5.342;2022-07-29T12:58:10;27.30;99.90
17988;DHT22;9119;50.932;5.342;2022-07-29T13:00:36;26.60;99.90
17988;DHT22;9119;50.932;5.342;2022-07-29T13:03:02;26.40;99.90
17988;DHT22;9119;50.932;5.342;2022-07-29T13:05:45;27.70;99.90
17988;DHT22;9119;50.932;5.342;2022-07-29T13:08:15;29.00;99.90
17988;DHT22;9119;50.932;5.342;2022-07-29T13:10:41;29.70;99.90
17988;DHT22;9119;50.932;5.342;2022-07-29T13:13:12;30.70;99.90
17988;DHT22;9119;50.932;5.342;2022-07-29T13:15:40;30.70;99.90
17988;DHT22;9119;50.932;5.342;2022-07-29T13:18:32;29.90;99.90
17988;DHT22;9119;50.932;5.342;2022-07-29T13:21:11;28.70;99.90
17988;DHT22;9119;50.932;5.342;2022-07-29T13:23:37;28.80;99.90
17988;DHT22;9119;50.932;5.342;2022-07-29T13:26:07;29.40;99.90
17988;DHT22;9119;50.932;5.342;2022-07-29T13:28:33;29.50;99.90
17988;DHT22;9119;50.932;5.342;2022-07-29T13:30:59;29.40;99.90
17988;DHT22;9119;50.932;5.342;2022-07-29T13:33:25;29.00;99.90
17988;DHT22;9119;50.932;5.342;2022-07-29T13:35:50;29.80;99.90
17988;DHT22;9119;50.932;5.342;2022-07-29T13:38:16;30.00;99.90
17988;DHT22;9119;50.932;5.342;2022-07-29T13:40:42;29.10;99.90
17988;DHT22;9119;50.932;5.342;2022-07-29T13:43:11;29.40;99.90
17988;DHT22;9119;50.932;5.342;2022-07-29T13:45:39;30.10;99.90
17988;DHT22;9119;50.932;5.342;2022-07-29T13:48:05;30.40;99.90
17988;DHT22;9119;50.932;5.342;2022-07-29T13:50:31;30.00;99.90
17988;DHT22;9119;50.932;5.342;2022-07-29T13:52:58;29.80;99.90
17988;DHT22;9119;50.932;5.342;2022-07-29T13:55:24;30.40;99.90
17988;DHT22;9119;50.932;5.342;2022-07-29T13:57:49;29.90;99.90
17988;DHT22;9119;50.932;5.342;2022-07-29T14:00:15;29.20;99.90
17988;DHT22;9119;50.932;5.342;2022-07-29T14:02:41;29.40;99.90
17988;DHT22;9119;50.932;5.342;2022-07-29T14:05:08;29.60;99.90
17988;DHT22;9119;50.932;5.342;2022-07-29T14:07:36;29.40;99.90
17988;DHT22;9119;50.932;5.342;2022-07-29T14:10:02;29.30;99.90
17988;DHT22;9119;50.932;5.342;2022-07-29T14:12:28;28.30;99.90
17988;DHT22;9119;50.932;5.342;2022-07-29T14:14:53;28.80;99.90
17988;DHT22;9119;50.932;5.342;2022-07-29T14:17:19;29.70;99.90
17988;DHT22;9119;50.932;5.342;2022-07-29T14:19:45;29.90;99.90
17988;DHT22;9119;50.932;5.342;2022-07-29T14:22:11;30.00;99.90
17988;DHT22;9119;50.932;5.342;2022-07-29T14:24:37;29.90;99.90
17988;DHT22;9119;50.932;5.342;2022-07-29T14:27:04;30.30;99.90
17988;DHT22;9119;50.932;5.342;2022-07-29T14:29:30;29.80;99.90
17988;DHT22;9119;50.932;5.342;2022-07-29T14:31:55;29.30;99.90
17988;DHT22;9119;50.932;5.342;2022-07-29T14:34:21;29.50;99.90
17988;DHT22;9119;50.932;5.342;2022-07-29T14:36:47;29.40;99.90
17988;DHT22;9119;50.932;5.342;2022-07-29T14:39:13;28.90;99.90
17988;DHT22;9119;50.932;5.342;2022-07-29T14:41:40;29.00;99.90
17988;DHT22;9119;50.932;5.342;2022-07-29T14:44:06;28.40;99.90
17988;DHT22;9119;50.932;5.342;2022-07-29T14:46:32;28.90;99.90
17988;DHT22;9119;50.932;5.342;2022-07-29T14:48:58;29.40;99.90
17988;DHT22;9119;50.932;5.342;2022-07-29T14:51:23;29.00;99.90
17988;DHT22;9119;50.932;5.342;2022-07-29T14:53:49;29.00;99.90
17988;DHT22;9119;50.932;5.342;2022-07-29T14:56:15;28.90;99.90
17988;DHT22;9119;50.932;5.342;2022-07-29T14:58:41;29.60;99.90
17988;DHT22;9119;50.932;5.342;2022-07-29T15:01:06;29.10;99.90
17988;DHT22;9119;50.932;5.342;2022-07-29T15:03:32;28.60;99.90
17988;DHT22;9119;50.932;5.342;2022-07-29T15:05:58;28.70;99.90
17988;DHT22;9119;50.932;5.342;2022-07-29T15:08:23;29.90;99.90
17988;DHT22;9119;50.932;5.342;2022-07-29T15:10:50;30.70;99.90
17988;DHT22;9119;50.932;5.342;2022-07-29T15:13:16;29.80;99.90
17988;DHT22;9119;50.932;5.342;2022-07-29T15:15:42;28.60;99.90
17988;DHT22;9119;50.932;5.342;2022-07-29T15:18:08;28.30;99.90
17988;DHT22;9119;50.932;5.342;2022-07-29T15:20:34;28.50;99.90
17988;DHT22;9119;50.932;5.342;2022-07-29T15:23:00;28.00;99.90
17988;DHT22;9119;50.932;5.342;2022-07-29T15:25:26;28.70;99.90
17988;DHT22;9119;50.932;5.342;2022-07-29T15:27:52;29.30;99.90
17988;DHT22;9119;50.932;5.342;2022-07-29T15:30:18;29.10;99.90
17988;DHT22;9119;50.932;5.342;2022-07-29T15:32:44;28.50;99.90
17988;DHT22;9119;50.932;5.342;2022-07-29T15:35:10;28.00;99.90
17988;DHT22;9119;50.932;5.342;2022-07-29T15:37:39;27.70;99.90
17988;DHT22;9119;50.932;5.342;2022-07-29T15:40:06;27.50;99.90
17988;DHT22;9119;50.932;5.342;2022-07-29T15:42:32;27.20;99.90
17988;DHT22;9119;50.932;5.342;2022-07-29T15:45:00;27.00;99.90
17988;DHT22;9119;50.932;5.342;2022-07-29T15:47:28;26.80;99.90
17988;DHT22;9119;50.932;5.342;2022-07-29T15:49:54;26.90;99.90
17988;DHT22;9119;50.932;5.342;2022-07-29T15:52:21;26.90;99.90
17988;DHT22;9119;50.932;5.342;2022-07-29T15:54:46;27.00;99.90
17988;DHT22;9119;50.932;5.342;2022-07-29T15:57:12;26.80;99.90
17988;DHT22;9119;50.932;5.342;2022-07-29T15:59:38;27.00;99.90
17988;DHT22;9119;50.932;5.342;2022-07-29T16:02:04;26.80;99.90
17988;DHT22;9119;50.932;5.342;2022-07-29T16:04:30;26.70;99.90
17988;DHT22;9119;50.932;5.342;2022-07-29T16:06:56;27.00;99.90
17988;DHT22;9119;50.932;5.342;2022-07-29T16:09:22;27.00;99.90
17988;DHT22;9119;50.932;5.342;2022-07-29T16:11:48;27.20;99.90
17988;DHT22;9119;50.932;5.342;2022-07-29T16:14:18;26.90;99.90
17988;DHT22;9119;50.932;5.342;2022-07-29T16:16:43;26.60;99.90
17988;DHT22;9119;50.932;5.342;2022-07-29T16:19:09;26.60;99.90
17988;DHT22;9119;50.932;5.342;2022-07-29T16:21:36;26.70;99.90
17988;DHT22;9119;50.932;5.342;2022-07-29T16:24:07;26.40;99.90